sensor_id;sensor_type;location;lat;lon;timestamp;P1;durP1;ratioP1;P2;durP2;ratioP2
13085;SDS011;6609;49.882;8.664;2022-10-24T00:01:14;11.77;;;3.10;;
13085;SDS011;6609;49.882;8.664;2022-10-24T00:03:44;8.50;;;3.07;;
13085;SDS011;6609;49.882;8.664;2022-10-24T00:06:11;11.60;;;2.90;;
13085;SDS011;6609;49.882;8.664;2022-10-24T00:08:38;9.70;;;3.00;;
13085;SDS011;6609;49.882;8.664;2022-10-24T00:11:07;10.43;;;2.77;;
13085;SDS011;6609;49.882;8.664;2022-10-24T00:13:35;5.43;;;2.83;;
13085;SDS011;6609;49.882;8.664;2022-10-24T00:16:02;8.23;;;3.03;;
13085;SDS011;6609;49.882;8.664;2022-10-24T00:18:29;7.70;;;3.10;;
13085;SDS011;6609;49.882;8.664;2022-10-24T00:20:57;13.90;;;2.57;;
13085;SDS011;6609;49.882;8.664;2022-10-24T00:23:24;4.87;;;2.53;;
13085;SDS011;6609;49.882;8.664;2022-10-24T00:25:51;8.07;;;2.40;;
13085;SDS011;6609;49.882;8.664;2022-10-24T00:28:18;13.07;;;3.20;;
13085;SDS011;6609;49.882;8.664;2022-10-24T00:30:44;6.23;;;2.50;;
13085;SDS011;6609;49.882;8.664;2022-10-24T00:33:16;7.83;;;2.90;;
13085;SDS011;6609;49.882;8.664;2022-10-24T00:35:43;7.93;;;2.60;;
13085;SDS011;6609;49.882;8.664;2022-10-24T00:38:11;9.87;;;2.70;;
13085;SDS011;6609;49.882;8.664;2022-10-24T00:40:38;11.10;;;2.73;;
13085;SDS011;6609;49.882;8.664;2022-10-24T00:43:09;8.40;;;3.33;;
13085;SDS011;6609;49.882;8.664;2022-10-24T00:45:40;11.53;;;2.47;;
13085;SDS011;6609;49.882;8.664;2022-10-24T00:48:11;6.77;;;2.67;;
13085;SDS011;6609;49.882;8.664;2022-10-24T00:50:43;10.77;;;2.60;;
13085;SDS011;6609;49.882;8.664;2022-10-24T00:53:13;9.43;;;2.80;;
13085;SDS011;6609;49.882;8.664;2022-10-24T00:55:41;8.23;;;2.90;;
13085;SDS011;6609;49.882;8.664;2022-10-24T00:58:09;7.40;;;2.60;;
13085;SDS011;6609;49.882;8.664;2022-10-24T01:00:36;7.33;;;2.60;;
13085;SDS011;6609;49.882;8.664;2022-10-24T01:03:03;9.73;;;2.80;;
13085;SDS011;6609;49.882;8.664;2022-10-24T01:05:38;12.17;;;2.87;;
13085;SDS011;6609;49.882;8.664;2022-10-24T01:08:16;7.00;;;2.30;;
13085;SDS011;6609;49.882;8.664;2022-10-24T01:10:51;9.63;;;3.00;;
13085;SDS011;6609;49.882;8.664;2022-10-24T01:13:31;13.90;;;2.90;;
13085;SDS011;6609;49.882;8.664;2022-10-24T01:16:05;10.23;;;2.60;;
13085;SDS011;6609;49.882;8.664;2022-10-24T01:18:41;7.67;;;2.50;;
13085;SDS011;6609;49.882;8.664;2022-10-24T01:21:25;9.03;;;3.60;;
13085;SDS011;6609;49.882;8.664;2022-10-24T01:24:05;11.13;;;2.73;;
13085;SDS011;6609;49.882;8.664;2022-10-24T01:30:05;15.57;;;2.90;;
13085;SDS011;6609;49.882;8.664;2022-10-24T01:32:34;12.80;;;2.80;;
13085;SDS011;6609;49.882;8.664;2022-10-24T01:35:10;7.63;;;2.50;;
13085;SDS011;6609;49.882;8.664;2022-10-24T01:37:45;8.07;;;2.50;;
13085;SDS011;6609;49.882;8.664;2022-10-24T01:40:19;7.83;;;2.50;;
13085;SDS011;6609;49.882;8.664;2022-10-24T01:42:47;7.87;;;2.50;;
13085;SDS011;6609;49.882;8.664;2022-10-24T01:45:20;9.23;;;2.30;;
13085;SDS011;6609;49.882;8.664;2022-10-24T01:47:51;8.40;;;2.57;;
13085;SDS011;6609;49.882;8.664;2022-10-24T01:50:21;13.43;;;2.37;;
13085;SDS011;6609;49.882;8.664;2022-10-24T01:52:51;11.73;;;3.10;;
13085;SDS011;6609;49.882;8.664;2022-10-24T01:55:20;4.80;;;2.40;;
13085;SDS011;6609;49.882;8.664;2022-10-24T01:57:48;11.60;;;2.50;;
13085;SDS011;6609;49.882;8.664;2022-10-24T02:00:16;8.30;;;2.57;;
13085;SDS011;6609;49.882;8.664;2022-10-24T02:02:47;6.67;;;3.20;;
13085;SDS011;6609;49.882;8.664;2022-10-24T02:05:18;10.17;;;2.90;;
13085;SDS011;6609;49.882;8.664;2022-10-24T02:07:47;11.63;;;2.67;;
13085;SDS011;6609;49.882;8.664;2022-10-24T02:10:18;10.23;;;2.50;;
13085;SDS011;6609;49.882;8.664;2022-10-24T02:12:52;8.47;;;2.70;;
13085;SDS011;6609;49.882;8.664;2022-10-24T02:15:24;7.90;;;3.30;;
13085;SDS011;6609;49.882;8.664;2022-10-24T02:17:53;12.00;;;2.77;;
13085;SDS011;6609;49.882;8.664;2022-10-24T02:20:24;8.80;;;2.50;;
13085;SDS011;6609;49.882;8.664;2022-10-24T02:22:55;14.57;;;3.00;;
13085;SDS011;6609;49.882;8.664;2022-10-24T02:25:25;11.80;;;2.97;;
13085;SDS011;6609;49.882;8.664;2022-10-24T02:28:02;8.77;;;3.07;;
13085;SDS011;6609;49.882;8.664;2022-10-24T02:30:32;9.20;;;2.67;;
13085;SDS011;6609;49.882;8.664;2022-10-24T02:33:01;9.60;;;2.73;;
13085;SDS011;6609;49.882;8.664;2022-10-24T02:35:28;8.23;;;2.70;;
13085;SDS011;6609;49.882;8.664;2022-10-24T02:37:58;5.80;;;2.80;;
13085;SDS011;6609;49.882;8.664;2022-10-24T02:40:28;11.03;;;3.40;;
13085;SDS011;6609;49.882;8.664;2022-10-24T02:42:55;9.27;;;3.13;;
13085;SDS011;6609;49.882;8.664;2022-10-24T02:45:23;7.90;;;2.73;;
13085;SDS011;6609;49.882;8.664;2022-10-24T02:47:54;10.27;;;2.77;;
13085;SDS011;6609;49.882;8.664;2022-10-24T02:50:26;14.63;;;4.00;;
13085;SDS011;6609;49.882;8.664;2022-10-24T02:52:54;14.40;;;3.03;;
13085;SDS011;6609;49.882;8.664;2022-10-24T02:55:20;11.10;;;2.83;;
13085;SDS011;6609;49.882;8.664;2022-10-24T02:57:47;10.73;;;2.70;;
13085;SDS011;6609;49.882;8.664;2022-10-24T03:00:14;9.23;;;3.17;;
13085;SDS011;6609;49.882;8.664;2022-10-24T03:02:42;16.17;;;3.67;;
13085;SDS011;6609;49.882;8.664;2022-10-24T03:05:10;5.87;;;2.70;;
13085;SDS011;6609;49.882;8.664;2022-10-24T03:07:37;13.03;;;3.13;;
13085;SDS011;6609;49.882;8.664;2022-10-24T03:10:04;7.03;;;3.17;;
13085;SDS011;6609;49.882;8.664;2022-10-24T03:12:31;12.53;;;2.80;;
13085;SDS011;6609;49.882;8.664;2022-10-24T03:14:58;6.07;;;3.17;;
13085;SDS011;6609;49.882;8.664;2022-10-24T03:17:25;12.73;;;3.60;;
13085;SDS011;6609;49.882;8.664;2022-10-24T03:19:52;8.13;;;2.70;;
13085;SDS011;6609;49.882;8.664;2022-10-24T03:22:20;9.07;;;3.17;;
13085;SDS011;6609;49.882;8.664;2022-10-24T03:24:47;10.37;;;2.43;;
13085;SDS011;6609;49.882;8.664;2022-10-24T03:27:13;17.20;;;3.03;;
13085;SDS011;6609;49.882;8.664;2022-10-24T03:29:41;23.67;;;3.13;;
13085;SDS011;6609;49.882;8.664;2022-10-24T03:32:07;13.70;;;2.77;;
13085;SDS011;6609;49.882;8.664;2022-10-24T03:34:34;7.47;;;2.60;;
13085;SDS011;6609;49.882;8.664;2022-10-24T03:37:01;12.60;;;3.83;;
13085;SDS011;6609;49.882;8.664;2022-10-24T03:39:29;15.70;;;3.40;;
13085;SDS011;6609;49.882;8.664;2022-10-24T03:41:56;6.70;;;2.60;;
13085;SDS011;6609;49.882;8.664;2022-10-24T03:44:23;19.97;;;3.33;;
13085;SDS011;6609;49.882;8.664;2022-10-24T03:46:50;12.20;;;2.90;;
13085;SDS011;6609;49.882;8.664;2022-10-24T03:49:17;13.13;;;3.30;;
13085;SDS011;6609;49.882;8.664;2022-10-24T03:51:44;15.47;;;2.77;;
13085;SDS011;6609;49.882;8.664;2022-10-24T03:54:11;17.33;;;3.03;;
13085;SDS011;6609;49.882;8.664;2022-10-24T03:56:40;11.67;;;3.50;;
13085;SDS011;6609;49.882;8.664;2022-10-24T03:59:07;13.60;;;3.37;;
13085;SDS011;6609;49.882;8.664;2022-10-24T04:01:34;14.77;;;3.20;;
13085;SDS011;6609;49.882;8.664;2022-10-24T04:04:01;12.63;;;3.13;;
13085;SDS011;6609;49.882;8.664;2022-10-24T04:06:28;13.23;;;3.40;;
13085;SDS011;6609;49.882;8.664;2022-10-24T04:08:55;15.07;;;3.33;;
13085;SDS011;6609;49.882;8.664;2022-10-24T04:11:22;8.27;;;3.13;;
13085;SDS011;6609;49.882;8.664;2022-10-24T04:13:50;8.57;;;2.93;;
13085;SDS011;6609;49.882;8.664;2022-10-24T04:16:17;8.00;;;3.23;;
13085;SDS011;6609;49.882;8.664;2022-10-24T04:18:44;15.23;;;2.83;;
13085;SDS011;6609;49.882;8.664;2022-10-24T04:21:11;12.27;;;3.27;;
13085;SDS011;6609;49.882;8.664;2022-10-24T04:23:38;11.43;;;3.20;;
13085;SDS011;6609;49.882;8.664;2022-10-24T04:26:06;14.40;;;3.37;;
13085;SDS011;6609;49.882;8.664;2022-10-24T04:28:33;11.47;;;3.63;;
13085;SDS011;6609;49.882;8.664;2022-10-24T04:31:02;12.83;;;3.07;;
13085;SDS011;6609;49.882;8.664;2022-10-24T04:33:29;8.13;;;2.90;;
13085;SDS011;6609;49.882;8.664;2022-10-24T04:35:56;6.07;;;3.40;;
13085;SDS011;6609;49.882;8.664;2022-10-24T04:38:23;11.43;;;3.37;;
13085;SDS011;6609;49.882;8.664;2022-10-24T04:40:50;11.87;;;3.80;;
13085;SDS011;6609;49.882;8.664;2022-10-24T04:43:18;10.97;;;2.87;;
13085;SDS011;6609;49.882;8.664;2022-10-24T04:45:45;9.30;;;3.40;;
13085;SDS011;6609;49.882;8.664;2022-10-24T04:48:14;11.33;;;3.77;;
13085;SDS011;6609;49.882;8.664;2022-10-24T04:50:42;10.03;;;3.77;;
13085;SDS011;6609;49.882;8.664;2022-10-24T04:53:10;9.23;;;3.10;;
13085;SDS011;6609;49.882;8.664;2022-10-24T04:55:37;10.50;;;3.87;;
13085;SDS011;6609;49.882;8.664;2022-10-24T04:58:03;11.33;;;3.63;;
13085;SDS011;6609;49.882;8.664;2022-10-24T05:00:31;19.30;;;3.63;;
13085;SDS011;6609;49.882;8.664;2022-10-24T05:02:58;11.85;;;3.53;;
13085;SDS011;6609;49.882;8.664;2022-10-24T05:05:26;12.73;;;3.73;;
13085;SDS011;6609;49.882;8.664;2022-10-24T05:07:53;16.80;;;4.37;;
13085;SDS011;6609;49.882;8.664;2022-10-24T05:10:20;9.97;;;3.47;;
13085;SDS011;6609;49.882;8.664;2022-10-24T05:12:47;16.63;;;3.83;;
13085;SDS011;6609;49.882;8.664;2022-10-24T05:15:14;15.50;;;4.23;;
13085;SDS011;6609;49.882;8.664;2022-10-24T05:17:42;11.47;;;3.70;;
13085;SDS011;6609;49.882;8.664;2022-10-24T05:20:09;7.20;;;3.27;;
13085;SDS011;6609;49.882;8.664;2022-10-24T05:22:38;13.23;;;3.10;;
13085;SDS011;6609;49.882;8.664;2022-10-24T05:25:05;14.70;;;3.80;;
13085;SDS011;6609;49.882;8.664;2022-10-24T05:27:32;13.33;;;3.73;;
13085;SDS011;6609;49.882;8.664;2022-10-24T05:29:59;14.30;;;3.20;;
13085;SDS011;6609;49.882;8.664;2022-10-24T05:32:26;17.70;;;4.27;;
13085;SDS011;6609;49.882;8.664;2022-10-24T05:34:53;12.03;;;3.40;;
13085;SDS011;6609;49.882;8.664;2022-10-24T05:37:20;13.10;;;3.73;;
13085;SDS011;6609;49.882;8.664;2022-10-24T05:39:49;8.97;;;3.57;;
13085;SDS011;6609;49.882;8.664;2022-10-24T05:42:15;15.53;;;3.73;;
13085;SDS011;6609;49.882;8.664;2022-10-24T05:44:42;12.80;;;3.40;;
13085;SDS011;6609;49.882;8.664;2022-10-24T05:47:09;19.50;;;3.60;;
13085;SDS011;6609;49.882;8.664;2022-10-24T05:49:36;14.13;;;3.70;;
13085;SDS011;6609;49.882;8.664;2022-10-24T05:52:03;9.10;;;3.77;;
13085;SDS011;6609;49.882;8.664;2022-10-24T05:54:30;10.43;;;3.37;;
13085;SDS011;6609;49.882;8.664;2022-10-24T05:56:59;15.77;;;3.90;;
13085;SDS011;6609;49.882;8.664;2022-10-24T05:59:25;15.00;;;3.90;;
13085;SDS011;6609;49.882;8.664;2022-10-24T06:01:52;10.03;;;3.63;;
13085;SDS011;6609;49.882;8.664;2022-10-24T06:04:19;13.93;;;3.70;;
13085;SDS011;6609;49.882;8.664;2022-10-24T06:06:46;11.93;;;3.90;;
13085;SDS011;6609;49.882;8.664;2022-10-24T06:09:13;14.13;;;3.70;;
13085;SDS011;6609;49.882;8.664;2022-10-24T06:11:40;11.23;;;3.50;;
13085;SDS011;6609;49.882;8.664;2022-10-24T06:14:09;10.33;;;3.13;;
13085;SDS011;6609;49.882;8.664;2022-10-24T06:16:36;9.77;;;3.20;;
13085;SDS011;6609;49.882;8.664;2022-10-24T06:19:03;13.60;;;3.47;;
13085;SDS011;6609;49.882;8.664;2022-10-24T06:21:29;12.23;;;3.53;;
13085;SDS011;6609;49.882;8.664;2022-10-24T06:23:57;10.90;;;4.30;;
13085;SDS011;6609;49.882;8.664;2022-10-24T06:26:24;11.50;;;4.90;;
13085;SDS011;6609;49.882;8.664;2022-10-24T06:28:51;11.23;;;3.70;;
13085;SDS011;6609;49.882;8.664;2022-10-24T06:31:20;12.47;;;3.67;;
13085;SDS011;6609;49.882;8.664;2022-10-24T06:33:46;11.20;;;3.77;;
13085;SDS011;6609;49.882;8.664;2022-10-24T06:36:14;11.27;;;3.60;;
13085;SDS011;6609;49.882;8.664;2022-10-24T06:38:41;10.27;;;2.90;;
13085;SDS011;6609;49.882;8.664;2022-10-24T06:41:08;11.23;;;3.70;;
13085;SDS011;6609;49.882;8.664;2022-10-24T06:43:36;10.37;;;3.30;;
13085;SDS011;6609;49.882;8.664;2022-10-24T06:46:04;13.60;;;3.60;;
13085;SDS011;6609;49.882;8.664;2022-10-24T06:48:33;9.83;;;3.03;;
13085;SDS011;6609;49.882;8.664;2022-10-24T06:50:59;10.67;;;3.70;;
13085;SDS011;6609;49.882;8.664;2022-10-24T06:53:26;13.07;;;3.33;;
13085;SDS011;6609;49.882;8.664;2022-10-24T06:55:54;8.67;;;3.40;;
13085;SDS011;6609;49.882;8.664;2022-10-24T06:58:24;11.87;;;3.47;;
13085;SDS011;6609;49.882;8.664;2022-10-24T07:00:51;14.47;;;3.23;;
13085;SDS011;6609;49.882;8.664;2022-10-24T07:03:18;14.63;;;4.20;;
13085;SDS011;6609;49.882;8.664;2022-10-24T07:05:46;10.63;;;3.53;;
13085;SDS011;6609;49.882;8.664;2022-10-24T07:08:13;12.23;;;3.63;;
13085;SDS011;6609;49.882;8.664;2022-10-24T07:10:40;12.37;;;4.37;;
13085;SDS011;6609;49.882;8.664;2022-10-24T07:13:07;8.30;;;3.50;;
13085;SDS011;6609;49.882;8.664;2022-10-24T07:15:34;10.90;;;3.23;;
13085;SDS011;6609;49.882;8.664;2022-10-24T07:18:00;13.87;;;3.63;;
13085;SDS011;6609;49.882;8.664;2022-10-24T07:20:27;7.23;;;3.07;;
13085;SDS011;6609;49.882;8.664;2022-10-24T07:22:55;11.93;;;3.40;;
13085;SDS011;6609;49.882;8.664;2022-10-24T07:25:22;15.17;;;3.50;;
13085;SDS011;6609;49.882;8.664;2022-10-24T07:27:49;12.03;;;3.90;;
13085;SDS011;6609;49.882;8.664;2022-10-24T07:30:18;12.10;;;3.20;;
13085;SDS011;6609;49.882;8.664;2022-10-24T07:32:45;15.23;;;3.57;;
13085;SDS011;6609;49.882;8.664;2022-10-24T07:35:12;14.87;;;4.20;;
13085;SDS011;6609;49.882;8.664;2022-10-24T07:37:39;11.90;;;3.87;;
13085;SDS011;6609;49.882;8.664;2022-10-24T07:40:08;12.20;;;2.97;;
13085;SDS011;6609;49.882;8.664;2022-10-24T07:42:35;12.80;;;3.50;;
13085;SDS011;6609;49.882;8.664;2022-10-24T07:45:02;9.47;;;3.00;;
13085;SDS011;6609;49.882;8.664;2022-10-24T07:47:31;12.53;;;3.50;;
13085;SDS011;6609;49.882;8.664;2022-10-24T07:49:58;10.20;;;3.23;;
13085;SDS011;6609;49.882;8.664;2022-10-24T07:52:24;11.97;;;3.33;;
13085;SDS011;6609;49.882;8.664;2022-10-24T07:54:52;10.80;;;3.20;;
13085;SDS011;6609;49.882;8.664;2022-10-24T07:57:20;8.97;;;3.33;;
13085;SDS011;6609;49.882;8.664;2022-10-24T07:59:47;10.30;;;3.73;;
13085;SDS011;6609;49.882;8.664;2022-10-24T08:02:14;16.10;;;4.10;;
13085;SDS011;6609;49.882;8.664;2022-10-24T08:04:42;10.97;;;3.47;;
13085;SDS011;6609;49.882;8.664;2022-10-24T08:07:09;13.03;;;3.10;;
13085;SDS011;6609;49.882;8.664;2022-10-24T08:09:38;13.90;;;3.43;;
13085;SDS011;6609;49.882;8.664;2022-10-24T08:12:05;10.53;;;3.57;;
13085;SDS011;6609;49.882;8.664;2022-10-24T08:14:33;11.87;;;3.47;;
13085;SDS011;6609;49.882;8.664;2022-10-24T08:17:01;10.03;;;3.53;;
13085;SDS011;6609;49.882;8.664;2022-10-24T08:19:29;12.63;;;3.60;;
13085;SDS011;6609;49.882;8.664;2022-10-24T08:21:56;8.30;;;3.50;;
13085;SDS011;6609;49.882;8.664;2022-10-24T08:24:24;12.27;;;3.20;;
13085;SDS011;6609;49.882;8.664;2022-10-24T08:26:51;11.87;;;3.23;;
13085;SDS011;6609;49.882;8.664;2022-10-24T08:29:19;12.47;;;3.63;;
13085;SDS011;6609;49.882;8.664;2022-10-24T08:31:50;7.60;;;2.57;;
13085;SDS011;6609;49.882;8.664;2022-10-24T08:34:19;14.13;;;2.87;;
13085;SDS011;6609;49.882;8.664;2022-10-24T08:36:53;13.03;;;2.90;;
13085;SDS011;6609;49.882;8.664;2022-10-24T08:39:22;8.20;;;3.13;;
13085;SDS011;6609;49.882;8.664;2022-10-24T08:41:52;13.80;;;3.57;;
13085;SDS011;6609;49.882;8.664;2022-10-24T08:44:25;7.83;;;2.67;;
13085;SDS011;6609;49.882;8.664;2022-10-24T08:46:57;7.63;;;2.57;;
13085;SDS011;6609;49.882;8.664;2022-10-24T08:49:29;9.23;;;3.33;;
13085;SDS011;6609;49.882;8.664;2022-10-24T08:52:03;12.67;;;3.30;;
13085;SDS011;6609;49.882;8.664;2022-10-24T08:54:40;7.47;;;2.73;;
13085;SDS011;6609;49.882;8.664;2022-10-24T08:57:14;13.27;;;2.83;;
13085;SDS011;6609;49.882;8.664;2022-10-24T08:59:45;8.93;;;3.10;;
13085;SDS011;6609;49.882;8.664;2022-10-24T09:02:16;10.40;;;2.83;;
13085;SDS011;6609;49.882;8.664;2022-10-24T09:04:48;8.77;;;2.97;;
13085;SDS011;6609;49.882;8.664;2022-10-24T09:07:20;7.83;;;2.47;;
13085;SDS011;6609;49.882;8.664;2022-10-24T09:09:49;10.17;;;2.87;;
13085;SDS011;6609;49.882;8.664;2022-10-24T09:12:21;9.53;;;3.23;;
13085;SDS011;6609;49.882;8.664;2022-10-24T09:14:52;9.30;;;2.50;;
13085;SDS011;6609;49.882;8.664;2022-10-24T09:17:23;6.70;;;2.60;;
13085;SDS011;6609;49.882;8.664;2022-10-24T09:19:55;7.83;;;3.03;;
13085;SDS011;6609;49.882;8.664;2022-10-24T09:22:26;8.60;;;2.70;;
13085;SDS011;6609;49.882;8.664;2022-10-24T09:24:56;13.90;;;3.67;;
13085;SDS011;6609;49.882;8.664;2022-10-24T09:27:26;9.77;;;2.70;;
13085;SDS011;6609;49.882;8.664;2022-10-24T09:29:57;7.70;;;3.00;;
13085;SDS011;6609;49.882;8.664;2022-10-24T09:32:26;11.17;;;2.50;;
13085;SDS011;6609;49.882;8.664;2022-10-24T09:34:57;9.50;;;2.47;;
13085;SDS011;6609;49.882;8.664;2022-10-24T09:37:30;7.63;;;2.23;;
13085;SDS011;6609;49.882;8.664;2022-10-24T09:40:12;7.43;;;2.00;;
13085;SDS011;6609;49.882;8.664;2022-10-24T09:42:46;8.40;;;2.00;;
13085;SDS011;6609;49.882;8.664;2022-10-24T09:45:19;7.40;;;2.40;;
13085;SDS011;6609;49.882;8.664;2022-10-24T09:48:02;7.07;;;2.80;;
13085;SDS011;6609;49.882;8.664;2022-10-24T09:50:33;10.37;;;2.73;;
13085;SDS011;6609;49.882;8.664;2022-10-24T09:53:00;8.37;;;2.30;;
13085;SDS011;6609;49.882;8.664;2022-10-24T09:55:28;7.27;;;2.43;;
13085;SDS011;6609;49.882;8.664;2022-10-24T09:57:56;8.37;;;2.53;;
13085;SDS011;6609;49.882;8.664;2022-10-24T10:00:30;8.73;;;2.90;;
13085;SDS011;6609;49.882;8.664;2022-10-24T10:03:01;9.20;;;2.23;;
13085;SDS011;6609;49.882;8.664;2022-10-24T10:05:40;6.87;;;2.83;;
13085;SDS011;6609;49.882;8.664;2022-10-24T10:08:09;8.17;;;2.50;;
13085;SDS011;6609;49.882;8.664;2022-10-24T10:10:40;8.80;;;2.80;;
13085;SDS011;6609;49.882;8.664;2022-10-24T10:13:17;9.27;;;2.83;;
13085;SDS011;6609;49.882;8.664;2022-10-24T10:15:49;8.67;;;2.60;;
13085;SDS011;6609;49.882;8.664;2022-10-24T10:18:23;7.17;;;2.17;;
13085;SDS011;6609;49.882;8.664;2022-10-24T10:20:57;11.83;;;2.97;;
13085;SDS011;6609;49.882;8.664;2022-10-24T10:23:30;6.97;;;2.20;;
13085;SDS011;6609;49.882;8.664;2022-10-24T10:26:06;7.20;;;2.33;;
13085;SDS011;6609;49.882;8.664;2022-10-24T10:28:44;6.17;;;1.90;;
13085;SDS011;6609;49.882;8.664;2022-10-24T10:31:16;10.03;;;2.63;;
13085;SDS011;6609;49.882;8.664;2022-10-24T10:33:49;8.63;;;2.80;;
13085;SDS011;6609;49.882;8.664;2022-10-24T10:36:23;9.40;;;2.67;;
13085;SDS011;6609;49.882;8.664;2022-10-24T10:38:57;6.90;;;2.03;;
13085;SDS011;6609;49.882;8.664;2022-10-24T10:41:42;4.73;;;2.10;;
13085;SDS011;6609;49.882;8.664;2022-10-24T10:44:21;6.47;;;2.20;;
13085;SDS011;6609;49.882;8.664;2022-10-24T10:47:00;6.40;;;2.43;;
13085;SDS011;6609;49.882;8.664;2022-10-24T10:49:38;8.77;;;2.63;;
13085;SDS011;6609;49.882;8.664;2022-10-24T10:52:07;10.60;;;2.50;;
13085;SDS011;6609;49.882;8.664;2022-10-24T10:55:05;6.73;;;2.37;;
13085;SDS011;6609;49.882;8.664;2022-10-24T10:57:41;5.47;;;2.03;;
13085;SDS011;6609;49.882;8.664;2022-10-24T11:00:13;9.53;;;2.13;;
13085;SDS011;6609;49.882;8.664;2022-10-24T11:02:51;5.00;;;2.03;;
13085;SDS011;6609;49.882;8.664;2022-10-24T11:05:35;9.90;;;2.30;;
13085;SDS011;6609;49.882;8.664;2022-10-24T11:08:13;5.67;;;1.83;;
13085;SDS011;6609;49.882;8.664;2022-10-24T11:10:43;10.73;;;2.40;;
13085;SDS011;6609;49.882;8.664;2022-10-24T11:13:16;10.70;;;2.40;;
13085;SDS011;6609;49.882;8.664;2022-10-24T11:15:47;4.13;;;2.30;;
13085;SDS011;6609;49.882;8.664;2022-10-24T11:18:20;7.83;;;2.07;;
13085;SDS011;6609;49.882;8.664;2022-10-24T11:20:50;4.53;;;1.53;;
13085;SDS011;6609;49.882;8.664;2022-10-24T11:23:21;6.87;;;2.23;;
13085;SDS011;6609;49.882;8.664;2022-10-24T11:25:53;5.07;;;1.73;;
13085;SDS011;6609;49.882;8.664;2022-10-24T11:28:25;8.47;;;2.27;;
13085;SDS011;6609;49.882;8.664;2022-10-24T11:30:55;9.87;;;2.50;;
13085;SDS011;6609;49.882;8.664;2022-10-24T11:33:26;9.20;;;2.30;;
13085;SDS011;6609;49.882;8.664;2022-10-24T11:36:00;5.73;;;2.17;;
13085;SDS011;6609;49.882;8.664;2022-10-24T11:38:32;4.77;;;2.10;;
13085;SDS011;6609;49.882;8.664;2022-10-24T11:41:11;6.00;;;1.93;;
13085;SDS011;6609;49.882;8.664;2022-10-24T11:43:45;8.97;;;2.37;;
13085;SDS011;6609;49.882;8.664;2022-10-24T11:46:14;7.07;;;2.30;;
13085;SDS011;6609;49.882;8.664;2022-10-24T11:48:45;6.27;;;2.10;;
13085;SDS011;6609;49.882;8.664;2022-10-24T11:51:16;5.53;;;2.00;;
13085;SDS011;6609;49.882;8.664;2022-10-24T11:53:48;5.50;;;1.93;;
13085;SDS011;6609;49.882;8.664;2022-10-24T11:56:22;5.63;;;1.80;;
13085;SDS011;6609;49.882;8.664;2022-10-24T11:58:55;9.47;;;2.40;;
13085;SDS011;6609;49.882;8.664;2022-10-24T12:04:27;7.03;;;2.00;;
13085;SDS011;6609;49.882;8.664;2022-10-24T12:07:29;6.70;;;2.70;;
13085;SDS011;6609;49.882;8.664;2022-10-24T12:10:09;6.67;;;2.13;;
13085;SDS011;6609;49.882;8.664;2022-10-24T12:12:44;9.27;;;2.10;;
13085;SDS011;6609;49.882;8.664;2022-10-24T12:15:24;6.00;;;1.90;;
13085;SDS011;6609;49.882;8.664;2022-10-24T12:17:58;5.43;;;1.90;;
13085;SDS011;6609;49.882;8.664;2022-10-24T12:20:33;7.20;;;2.00;;
13085;SDS011;6609;49.882;8.664;2022-10-24T12:23:02;6.83;;;2.00;;
13085;SDS011;6609;49.882;8.664;2022-10-24T12:25:30;7.07;;;2.27;;
13085;SDS011;6609;49.882;8.664;2022-10-24T12:28:00;7.90;;;2.30;;
13085;SDS011;6609;49.882;8.664;2022-10-24T12:30:28;7.87;;;2.53;;
13085;SDS011;6609;49.882;8.664;2022-10-24T12:32:56;7.27;;;2.57;;
13085;SDS011;6609;49.882;8.664;2022-10-24T12:35:32;10.33;;;2.20;;
13085;SDS011;6609;49.882;8.664;2022-10-24T12:38:12;7.77;;;2.43;;
13085;SDS011;6609;49.882;8.664;2022-10-24T12:40:47;8.47;;;2.60;;
13085;SDS011;6609;49.882;8.664;2022-10-24T12:43:25;6.13;;;1.70;;
13085;SDS011;6609;49.882;8.664;2022-10-24T12:45:58;7.53;;;2.00;;
13085;SDS011;6609;49.882;8.664;2022-10-24T12:48:30;9.40;;;2.30;;
13085;SDS011;6609;49.882;8.664;2022-10-24T12:51:01;7.57;;;2.23;;
13085;SDS011;6609;49.882;8.664;2022-10-24T12:53:41;10.53;;;3.03;;
13085;SDS011;6609;49.882;8.664;2022-10-24T12:56:26;11.57;;;2.37;;
13085;SDS011;6609;49.882;8.664;2022-10-24T12:58:54;7.67;;;2.30;;
13085;SDS011;6609;49.882;8.664;2022-10-24T13:01:27;7.67;;;2.53;;
13085;SDS011;6609;49.882;8.664;2022-10-24T13:09:48;7.10;;;2.13;;
13085;SDS011;6609;49.882;8.664;2022-10-24T13:12:31;9.17;;;2.87;;
13085;SDS011;6609;49.882;8.664;2022-10-24T13:15:18;7.73;;;1.93;;
13085;SDS011;6609;49.882;8.664;2022-10-24T13:17:53;5.30;;;2.10;;
13085;SDS011;6609;49.882;8.664;2022-10-24T13:20:26;9.97;;;2.60;;
13085;SDS011;6609;49.882;8.664;2022-10-24T13:23:02;7.90;;;2.07;;
13085;SDS011;6609;49.882;8.664;2022-10-24T13:25:35;9.77;;;1.83;;
13085;SDS011;6609;49.882;8.664;2022-10-24T13:30:49;7.63;;;2.10;;
13085;SDS011;6609;49.882;8.664;2022-10-24T13:36:11;4.30;;;1.90;;
13085;SDS011;6609;49.882;8.664;2022-10-24T13:38:43;4.23;;;2.07;;
13085;SDS011;6609;49.882;8.664;2022-10-24T13:41:12;9.13;;;2.40;;
13085;SDS011;6609;49.882;8.664;2022-10-24T13:43:44;10.27;;;2.53;;
13085;SDS011;6609;49.882;8.664;2022-10-24T13:46:17;9.83;;;2.50;;
13085;SDS011;6609;49.882;8.664;2022-10-24T13:48:50;7.47;;;2.33;;
13085;SDS011;6609;49.882;8.664;2022-10-24T13:51:19;4.77;;;1.70;;
13085;SDS011;6609;49.882;8.664;2022-10-24T13:53:50;5.20;;;1.70;;
13085;SDS011;6609;49.882;8.664;2022-10-24T13:56:20;7.37;;;1.50;;
13085;SDS011;6609;49.882;8.664;2022-10-24T13:58:47;4.57;;;1.60;;
13085;SDS011;6609;49.882;8.664;2022-10-24T14:01:16;9.23;;;1.97;;
13085;SDS011;6609;49.882;8.664;2022-10-24T14:03:44;8.87;;;2.13;;
13085;SDS011;6609;49.882;8.664;2022-10-24T14:06:12;10.90;;;1.70;;
13085;SDS011;6609;49.882;8.664;2022-10-24T14:08:41;7.33;;;1.80;;
13085;SDS011;6609;49.882;8.664;2022-10-24T14:11:11;6.30;;;1.60;;
13085;SDS011;6609;49.882;8.664;2022-10-24T14:13:43;3.43;;;1.63;;
13085;SDS011;6609;49.882;8.664;2022-10-24T14:16:13;4.50;;;1.57;;
13085;SDS011;6609;49.882;8.664;2022-10-24T14:18:42;6.83;;;1.23;;
13085;SDS011;6609;49.882;8.664;2022-10-24T14:21:14;4.37;;;1.83;;
13085;SDS011;6609;49.882;8.664;2022-10-24T14:23:52;2.90;;;1.17;;
13085;SDS011;6609;49.882;8.664;2022-10-24T14:26:19;3.87;;;1.50;;
13085;SDS011;6609;49.882;8.664;2022-10-24T14:28:49;7.17;;;1.87;;
13085;SDS011;6609;49.882;8.664;2022-10-24T14:31:18;5.97;;;1.13;;
13085;SDS011;6609;49.882;8.664;2022-10-24T14:33:47;5.03;;;1.20;;
13085;SDS011;6609;49.882;8.664;2022-10-24T14:36:15;3.70;;;1.37;;
13085;SDS011;6609;49.882;8.664;2022-10-24T14:38:44;3.17;;;1.53;;
13085;SDS011;6609;49.882;8.664;2022-10-24T14:41:15;3.30;;;1.30;;
13085;SDS011;6609;49.882;8.664;2022-10-24T14:43:43;3.70;;;1.67;;
13085;SDS011;6609;49.882;8.664;2022-10-24T14:46:25;4.50;;;1.43;;
13085;SDS011;6609;49.882;8.664;2022-10-24T14:49:00;4.00;;;1.73;;
13085;SDS011;6609;49.882;8.664;2022-10-24T14:51:45;4.50;;;1.40;;
13085;SDS011;6609;49.882;8.664;2022-10-24T14:54:13;6.90;;;1.47;;
13085;SDS011;6609;49.882;8.664;2022-10-24T14:56:42;3.30;;;1.33;;
13085;SDS011;6609;49.882;8.664;2022-10-24T14:59:16;3.87;;;1.27;;
13085;SDS011;6609;49.882;8.664;2022-10-24T15:01:52;5.63;;;1.40;;
13085;SDS011;6609;49.882;8.664;2022-10-24T15:04:26;3.40;;;1.27;;
13085;SDS011;6609;49.882;8.664;2022-10-24T15:06:55;4.83;;;1.73;;
13085;SDS011;6609;49.882;8.664;2022-10-24T15:09:22;5.03;;;1.20;;
13085;SDS011;6609;49.882;8.664;2022-10-24T15:11:57;4.23;;;1.73;;
13085;SDS011;6609;49.882;8.664;2022-10-24T15:14:32;5.90;;;1.27;;
13085;SDS011;6609;49.882;8.664;2022-10-24T15:19:49;5.03;;;1.20;;
13085;SDS011;6609;49.882;8.664;2022-10-24T15:22:18;3.50;;;1.00;;
13085;SDS011;6609;49.882;8.664;2022-10-24T15:24:51;7.87;;;1.97;;
13085;SDS011;6609;49.882;8.664;2022-10-24T15:27:21;6.93;;;1.30;;
13085;SDS011;6609;49.882;8.664;2022-10-24T15:29:50;4.57;;;1.10;;
13085;SDS011;6609;49.882;8.664;2022-10-24T15:32:16;5.20;;;1.23;;
13085;SDS011;6609;49.882;8.664;2022-10-24T15:34:43;6.33;;;1.57;;